Time;durP1;ratioP1;P1;durP2;ratioP2;P2;SDS_P1;SDS_P2;PMS_P1;PMS_P2;Temp;Humidity;BMP_temperature;BMP_pressure;BME280_temperature;BME280_humidity;BME280_pressure;Samples;Min_cycle;Max_cycle;Signal;HPM_P1;HPM_P2
2021/12/02 00:00:14;;;;;;;5.00;4.00;;;;;;;3.45;100.00;100006.59;5253721;28;20037;-95
2021/12/02 00:02:45;;;;;;;4.43;4.13;;;;;;;3.25;100.00;99956.19;5253742;28;20024;-92
2021/12/02 00:05:16;;;;;;;10.13;4.78;;;;;;;3.72;100.00;100047.00;5253035;28;20036;-93
2021/12/02 00:07:51;;;;;;;8.80;5.15;;;;;;;2.81;100.00;99874.03;5253424;28;20009;-92
2021/12/02 00:10:26;;;;;;;5.15;4.75;;;;;;;2.98;100.00;99920.31;5253674;28;20028;-94
2021/12/02 00:13:00;;;;;;;4.93;3.72;;;;;;;2.89;100.00;99927.00;5253524;28;20025;-91
2021/12/02 00:24:02;;;;;;;3.15;2.95;;;;;;;3.72;100.00;100060.34;5253962;28;20038;-93
2021/12/02 00:26:36;;;;;;;7.78;4.97;;;;;;;2.27;100.00;99846.53;5252771;28;20025;-92
2021/12/02 00:29:08;;;;;;;3.65;3.35;;;;;;;3.74;100.00;100114.34;5253188;28;20116;-93
2021/12/02 00:31:47;;;;;;;3.42;3.13;;;;;;;2.81;100.00;99930.00;5253493;28;20009;-93
2021/12/02 00:34:18;;;;;;;3.63;3.42;;;;;;;2.30;100.00;99856.75;5253266;28;20017;-90
2021/12/02 00:37:01;;;;;;;3.20;3.05;;;;;;;2.25;100.00;99853.94;5252828;28;20085;-92
2021/12/02 00:39:32;;;;;;;3.47;3.25;;;;;;;2.65;100.00;99931.47;5253166;28;20336;-93
2021/12/02 00:42:03;;;;;;;3.28;3.08;;;;;;;3.09;100.00;100010.22;5252975;28;20024;-92
2021/12/02 00:44:37;;;;;;;3.95;3.75;;;;;;;3.56;100.00;100085.03;5252400;28;20005;-91
2021/12/02 00:47:09;;;;;;;3.13;3.03;;;;;;;3.47;100.00;100057.03;5251013;28;20036;-93
2021/12/02 00:49:40;;;;;;;7.13;4.60;;;;;;;2.63;100.00;99909.53;5251988;28;20414;-92
2021/12/02 00:52:14;;;;;;;3.70;3.55;;;;;;;2.65;100.00;99926.94;5252622;28;20023;-91
2021/12/02 00:54:48;;;;;;;5.30;4.22;;;;;;;3.21;100.00;100021.72;5252504;28;20080;-90
2021/12/02 00:57:25;;;;;;;8.40;4.28;;;;;;;0.95;100.00;99686.72;5252841;28;20047;-92
2021/12/02 00:59:57;;;;;;;6.95;3.67;;;;;;;2.54;100.00;99930.41;5252474;28;20017;-91
2021/12/02 01:02:27;;;;;;;3.40;3.28;;;;;;;1.80;100.00;99829.53;5252643;28;20017;-93
2021/12/02 01:05:00;;;;;;;4.15;3.25;;;;;;;2.87;100.00;100017.09;5252283;28;20100;-92
2021/12/02 01:07:30;;;;;;;2.38;2.28;;;;;;;1.65;100.00;99825.44;5253097;28;20080;-90
2021/12/02 01:10:01;;;;;;;4.00;3.78;;;;;;;1.53;100.00;99824.53;5252095;28;20017;-91
2021/12/02 01:12:35;;;;;;;3.28;3.17;;;;;;;1.48;100.00;99866.13;5251219;28;20023;-93
2021/12/02 01:15:09;;;;;;;3.22;3.13;;;;;;;1.88;100.00;99895.78;5251858;28;20089;-92
2021/12/02 01:17:40;;;;;;;2.97;2.88;;;;;;;1.43;100.00;99858.03;5251668;28;20005;-93
2021/12/02 01:20:13;;;;;;;4.10;3.90;;;;;;;2.81;100.00;100061.47;5251992;28;20020;-91
2021/12/02 01:22:44;;;;;;;3.67;3.55;;;;;;;1.54;100.00;99889.22;5252002;28;20028;-91
2021/12/02 01:25:20;;;;;;;3.97;3.78;;;;;;;1.07;100.00;99819.72;5251424;28;20017;-93
2021/12/02 01:27:52;;;;;;;4.45;3.72;;;;;;;1.08;100.00;99876.38;5252363;28;20020;-91
2021/12/02 01:30:26;;;;;;;9.00;4.20;;;;;;;1.40;100.00;99901.03;5251950;28;20047;-93
2021/12/02 01:33:06;;;;;;;3.50;3.35;;;;;;;1.04;100.00;99844.09;5251450;28;20027;-93
2021/12/02 01:35:36;;;;;;;;;;;;;;;2.47;100.00;100062.91;5252190;28;20017;-93
2021/12/02 01:38:06;;;;;;;5.30;4.03;;;;;;;1.49;100.00;99924.44;5251922;28;20022;-92
2021/12/02 01:40:37;;;;;;;6.80;4.50;;;;;;;0.95;100.00;99864.81;5252048;28;20009;-92
2021/12/02 01:43:16;;;;;;;4.97;4.78;;;;;;;0.85;100.00;99821.16;5252139;28;20023;-93
2021/12/02 01:45:47;;;;;;;4.20;3.97;;;;;;;2.33;100.00;100054.22;5251849;28;20047;-92
2021/12/02 01:48:24;;;;;;;4.50;4.28;;;;;;;1.36;100.00;99908.63;5253073;28;20040;-93
2021/12/02 01:51:04;;;;;;;10.35;5.65;;;;;;;0.06;100.00;99728.81;5256399;28;20009;-92
2021/12/02 01:53:38;;;;;;;11.00;5.20;;;;;;;2.51;100.00;100085.41;5256080;28;20017;-93
2021/12/02 01:56:12;;;;;;;5.55;5.20;;;;;;;1.66;100.00;99938.81;5256365;28;20028;-92
2021/12/02 01:58:53;;;;;;;8.02;7.28;;;;;;;2.22;100.00;100057.66;5256887;28;20021;-91
2021/12/02 02:01:26;;;;;;;5.50;5.10;;;;;;;0.21;100.00;99753.22;5256127;28;20013;-92
2021/12/02 02:03:57;;;;;;;4.07;3.83;;;;;;;1.48;100.00;100012.47;5256454;28;20017;-93
2021/12/02 02:06:39;;;;;;;7.13;3.80;;;;;;;-0.05;100.00;99717.06;5255906;28;20059;-93
2021/12/02 02:09:11;;;;;;;4.57;4.22;;;;;;;-0.65;100.00;99660.13;5256013;28;20032;-93
2021/12/02 02:11:44;;;;;;;6.72;4.72;;;;;;;0.71;100.00;99824.94;5255981;28;20009;-94
2021/12/02 02:14:18;;;;;;;9.32;4.32;;;;;;;-0.26;100.00;99657.19;5255772;28;20017;-91
2021/12/02 02:16:51;;;;;;;9.65;5.30;;;;;;;1.18;100.00;99882.78;5255884;28;20005;-92
2021/12/02 02:19:29;;;;;;;5.75;5.30;;;;;;;1.17;100.00;99909.59;5256637;28;20013;-94
2021/12/02 02:22:02;;;;;;;11.73;6.60;;;;;;;1.82;100.00;99971.22;5255897;28;20020;-90
2021/12/02 02:24:33;;;;;;;11.75;6.10;;;;;;;2.63;100.00;100091.59;5255705;28;20040;-93
2021/12/02 02:27:05;;;;;;;7.55;5.68;;;;;;;1.21;100.00;99887.69;5255589;28;20005;-93
2021/12/02 02:29:35;;;;;;;5.97;5.47;;;;;;;1.08;100.00;99852.44;5255682;28;20047;-93
2021/12/02 02:32:09;;;;;;;6.10;5.50;;;;;;;0.65;100.00;99814.16;5255787;28;20084;-93
2021/12/02 02:34:40;;;;;;;5.03;4.75;;;;;;;1.65;100.00;99976.31;5255534;28;20001;-92
2021/12/02 02:37:13;;;;;;;3.78;3.60;;;;;;;1.04;100.00;99862.69;5255529;28;20028;-92
2021/12/02 02:39:46;;;;;;;4.28;4.03;;;;;;;1.62;100.00;99976.75;5256121;28;20032;-92
2021/12/02 02:42:22;;;;;;;5.82;4.03;;;;;;;2.39;100.00;100132.47;5256108;28;20020;-92
2021/12/02 02:44:56;;;;;;;12.80;4.18;;;;;;;0.86;100.00;99846.72;5255329;28;20021;-93
2021/12/02 02:47:27;;;;;;;3.28;3.17;;;;;;;-0.11;100.00;99758.53;5255480;28;20009;-92
2021/12/02 02:50:04;;;;;;;3.13;3.03;;;;;;;0.65;100.00;99838.06;5255340;28;20032;-91
2021/12/02 02:52:40;;;;;;;8.27;3.88;;;;;;;0.55;100.00;99852.88;5255345;28;20080;-92
2021/12/02 02:55:15;;;;;;;4.47;3.78;;;;;;;1.89;100.00;100111.22;5255035;28;20011;-92
2021/12/02 02:58:02;;;;;;;3.95;3.75;;;;;;;-1.11;100.00;99619.56;5255269;28;20024;-92
2021/12/02 03:00:53;;;;;;;3.92;3.63;;;;;;;0.38;100.00;99881.78;5255250;28;20032;-93
2021/12/02 03:06:19;;;;;;;4.10;3.90;;;;;;;0.07;100.00;99858.66;5255648;28;20089;-93
2021/12/02 03:09:04;;;;;;;5.47;3.17;;;;;;;0.09;100.00;99904.41;5254952;28;20028;-92
2021/12/02 03:11:45;;;;;;;4.47;4.13;;;;;;;0.68;100.00;99973.13;5255018;28;20013;-92
2021/12/02 03:14:27;;;;;;;7.53;3.78;;;;;;;0.64;100.00;99941.91;5254277;28;20555;-93
2021/12/02 03:16:58;;;;;;;10.05;5.25;;;;;;;1.66;100.00;100148.25;5254687;28;20044;-92
2021/12/02 03:19:31;;;;;;;2.63;2.53;;;;;;;1.66;100.00;100127.78;5254521;28;20005;-92
2021/12/02 03:22:24;;;;;;;7.25;4.45;;;;;;;1.70;100.00;100154.78;5254641;28;20028;-92
2021/12/02 03:25:07;;;;;;;4.95;4.47;;;;;;;0.89;100.00;100014.50;5254317;28;20032;-91
2021/12/02 03:27:37;;;;;;;3.08;2.90;;;;;;;-0.08;100.00;99842.22;5254778;28;20009;-91
2021/12/02 03:30:09;;;;;;;7.07;3.20;;;;;;;1.10;100.00;100037.31;5254495;28;20071;-91
2021/12/02 03:32:41;;;;;;;4.15;3.38;;;;;;;-0.65;100.00;99697.22;5254540;28;20005;-93
2021/12/02 03:35:15;;;;;;;9.85;4.13;;;;;;;1.09;100.00;99961.22;5254873;28;20098;-92
2021/12/02 03:37:46;;;;;;;4.20;3.55;;;;;;;0.58;100.00;99833.81;5254298;28;20013;-91
2021/12/02 03:40:20;;;;;;;4.55;3.88;;;;;;;1.80;100.00;100067.25;5254377;28;20032;-93
2021/12/02 03:42:54;;;;;;;3.50;2.90;;;;;;;2.27;100.00;100096.94;5254270;28;20033;-91
2021/12/02 03:45:25;;;;;;;4.97;3.88;;;;;;;0.66;100.00;99882.19;5253607;28;20013;-92
2021/12/02 03:48:01;;;;;;;3.20;2.92;;;;;;;1.14;100.00;99931.34;5254192;28;20044;-93
2021/12/02 03:50:31;;;;;;;9.68;3.25;;;;;;;2.19;100.00;100081.25;5253117;28;20017;-93
2021/12/02 03:53:04;;;;;;;4.70;3.58;;;;;;;2.45;100.00;100136.09;5254711;28;20059;-95
2021/12/02 03:55:47;;;;;;;4.10;3.47;;;;;;;1.89;100.00;100065.97;5253391;28;20017;-93
2021/12/02 03:58:17;;;;;;;4.55;4.25;;;;;;;2.53;100.00;100163.28;5254109;28;20036;-93
2021/12/02 04:00:53;;;;;;;6.70;4.13;;;;;;;1.59;100.00;99993.13;5254535;28;20020;-94
2021/12/02 04:03:32;;;;;;;6.57;5.00;;;;;;;1.57;100.00;99997.84;5253777;28;20021;-91
2021/12/02 04:06:29;;;;;;;5.05;4.65;;;;;;;0.37;100.00;99779.25;5253433;28;20044;-91
2021/12/02 04:11:45;;;;;;;3.55;3.25;;;;;;;1.10;100.00;99888.41;5253793;28;20025;-93
2021/12/02 04:17:14;;;;;;;2.58;2.55;;;;;;;1.60;100.00;99944.22;5254198;28;20010;-91
2021/12/02 04:19:45;;;;;;;2.75;2.65;;;;;;;2.72;100.00;100148.13;5253687;28;20024;-92
2021/12/02 04:22:18;;;;;;;3.95;3.75;;;;;;;0.46;100.00;99756.69;5253507;28;20005;-92
2021/12/02 04:24:57;;;;;;;5.30;3.80;;;;;;;1.73;100.00;99962.72;5253142;28;20024;-91
2021/12/02 04:27:28;;;;;;;5.40;4.90;;;;;;;2.69;100.00;100192.03;5253493;28;20041;-92
2021/12/02 04:29:59;;;;;;;6.80;4.40;;;;;;;1.77;100.00;100006.47;5253100;28;20056;-90
2021/12/02 04:32:32;;;;;;;5.07;4.57;;;;;;;1.21;100.00;99902.81;5252815;28;20013;-94
2021/12/02 04:35:03;;;;;;;3.35;3.00;;;;;;;2.70;100.00;100201.66;5252982;28;20017;-95
2021/12/02 04:37:43;;;;;;;6.55;3.72;;;;;;;1.83;100.00;100013.59;5253059;28;20028;-94
2021/12/02 04:40:18;;;;;;;;;;;;;;;2.75;100.00;100129.00;5253554;28;20017;-91
2021/12/02 04:42:49;;;;;;;2.40;2.35;;;;;;;1.24;100.00;99911.19;5253002;28;19995;-91
2021/12/02 04:48:04;;;;;;;4.60;4.28;;;;;;;2.43;100.00;100083.03;5246178;28;20679;-87
2021/12/02 04:50:35;;;;;;;7.13;3.47;;;;;;;2.72;100.00;100137.44;5248726;28;20086;-86
2021/12/02 04:53:05;;;;;;;2.78;2.65;;;;;;;2.62;100.00;100121.97;5247778;28;20020;-86
2021/12/02 04:55:36;;;;;;;3.15;3.05;;;;;;;2.42;100.00;100093.91;5265372;28;20067;-86
2021/12/02 04:58:06;;;;;;;2.60;2.50;;;;;;;2.64;100.00;100141.22;5250048;28;20488;-87
2021/12/02 05:00:37;;;;;;;4.10;3.90;;;;;;;2.18;100.00;100074.28;5248936;28;20027;-87
2021/12/02 05:03:14;;;;;;;3.40;3.20;;;;;;;2.33;100.00;100093.38;5248668;28;20541;-86
2021/12/02 05:05:44;;;;;;;2.88;2.78;;;;;;;2.48;100.00;100117.81;5249559;28;20028;-87
2021/12/02 05:08:15;;;;;;;3.38;3.08;;;;;;;2.38;100.00;100122.84;5249642;28;20032;-87
2021/12/02 05:10:45;;;;;;;5.82;3.70;;;;;;;2.22;100.00;100116.25;5248572;28;20051;-87
2021/12/02 05:13:16;;;;;;;4.53;4.10;;;;;;;1.96;100.00;100076.56;5248221;28;20103;-87
2021/12/02 05:15:46;;;;;;;3.95;3.75;;;;;;;2.22;100.00;100126.09;5248530;28;20028;-86
2021/12/02 05:18:17;;;;;;;3.67;3.47;;;;;;;2.23;100.00;100131.19;5248889;28;20035;-87
2021/12/02 05:20:48;;;;;;;4.00;2.92;;;;;;;2.28;100.00;100125.22;5250635;28;20052;-87
2021/12/02 05:23:19;;;;;;;2.58;2.47;;;;;;;2.28;100.00;100128.69;5251221;28;20073;-87
2021/12/02 05:25:49;;;;;;;4.50;3.40;;;;;;;2.24;100.00;100118.69;5249937;28;20031;-86
2021/12/02 05:28:20;;;;;;;9.30;5.25;;;;;;;2.05;100.00;100093.84;5248213;28;20028;-87
2021/12/02 05:30:51;;;;;;;3.35;3.10;;;;;;;2.51;100.00;100146.69;5249658;28;20039;-87
2021/12/02 05:33:21;;;;;;;3.05;2.85;;;;;;;2.50;100.00;100179.72;5266684;28;20024;-88
2021/12/02 05:35:52;;;;;;;5.10;4.40;;;;;;;1.85;100.00;100072.75;5250515;28;20033;-89
2021/12/02 05:38:22;;;;;;;4.40;4.03;;;;;;;1.41;100.00;100001.91;5248887;28;20021;-88
2021/12/02 05:40:52;;;;;;;4.53;3.30;;;;;;;1.43;100.00;100002.50;5249052;28;20398;-89
2021/12/02 05:43:23;;;;;;;7.38;4.00;;;;;;;1.60;100.00;100040.00;5249085;28;20028;-88
2021/12/02 05:45:53;;;;;;;3.80;3.47;;;;;;;1.89;100.00;100078.44;5244114;28;20119;-89
2021/12/02 05:48:24;;;;;;;7.10;4.45;;;;;;;2.23;100.00;100138.38;5248491;28;20016;-88
2021/12/02 05:50:54;;;;;;;4.25;4.05;;;;;;;1.59;100.00;100064.97;5250667;28;20153;-87
2021/12/02 05:53:25;;;;;;;4.70;4.40;;;;;;;1.72;100.00;100088.84;5251367;28;20021;-87
2021/12/02 05:55:56;;;;;;;4.07;3.88;;;;;;;1.71;100.00;100081.06;5250093;28;20027;-89
2021/12/02 05:58:26;;;;;;;4.70;4.35;;;;;;;1.68;100.00;100058.38;5249387;28;20028;-90
2021/12/02 06:00:56;;;;;;;11.95;5.28;;;;;;;2.28;100.00;100135.88;5248680;28;20024;-88
2021/12/02 06:03:27;;;;;;;6.00;3.65;;;;;;;1.93;100.00;100084.97;5244992;28;20025;-88
2021/12/02 06:05:58;;;;;;;11.68;4.35;;;;;;;2.27;100.00;100144.91;5244247;28;20035;-88
2021/12/02 06:08:28;;;;;;;7.00;3.53;;;;;;;1.96;100.00;100113.81;5244318;28;20371;-88
2021/12/02 06:10:58;;;;;;;10.88;4.50;;;;;;;1.87;100.00;100113.28;5245493;28;20540;-88
2021/12/02 06:13:29;;;;;;;7.07;5.68;;;;;;;2.00;100.00;100149.63;5244103;28;20508;-88
2021/12/02 06:15:59;;;;;;;4.28;4.03;;;;;;;1.67;100.00;100112.63;5244710;28;20025;-87
2021/12/02 06:18:29;;;;;;;7.63;4.03;;;;;;;1.95;100.00;100155.63;5244490;28;20009;-88
2021/12/02 06:21:00;;;;;;;7.22;4.05;;;;;;;1.91;100.00;100167.72;5244620;28;20035;-87
2021/12/02 06:23:30;;;;;;;10.98;3.60;;;;;;;1.87;100.00;100179.84;5244075;28;20024;-87
2021/12/02 06:26:00;;;;;;;5.53;3.88;;;;;;;1.70;100.00;100149.47;5244488;28;20035;-87
2021/12/02 06:28:31;;;;;;;4.18;3.65;;;;;;;1.54;100.00;100132.16;5244481;28;20023;-88
2021/12/02 06:31:02;;;;;;;6.47;4.15;;;;;;;1.61;100.00;100140.09;5244321;28;20123;-88
2021/12/02 06:33:34;;;;;;;4.18;3.22;;;;;;;1.62;100.00;100158.50;5243754;28;20031;-88
2021/12/02 06:36:04;;;;;;;3.83;3.17;;;;;;;1.44;100.00;100133.66;5248173;28;20043;-87
2021/12/02 06:38:34;;;;;;;3.42;3.20;;;;;;;1.59;100.00;100153.59;5248423;28;20021;-88
2021/12/02 06:41:05;;;;;;;2.50;2.50;;;;;;;1.69;100.00;100179.75;5250850;28;20374;-87
2021/12/02 06:43:35;;;;;;;3.70;3.40;;;;;;;1.37;100.00;100120.41;5248074;28;20067;-88
2021/12/02 06:46:05;;;;;;;4.75;3.40;;;;;;;1.82;100.00;100184.97;5249669;28;20119;-88
2021/12/02 06:48:36;;;;;;;4.13;3.75;;;;;;;1.79;100.00;100180.09;5248476;28;20612;-87
2021/12/02 06:51:08;;;;;;;3.88;3.58;;;;;;;1.46;100.00;100153.69;5248985;28;20414;-88
2021/12/02 06:53:39;;;;;;;3.10;3.00;;;;;;;1.51;100.00;100188.44;5249111;28;20028;-88
2021/12/02 06:56:09;;;;;;;14.02;5.15;;;;;;;1.35;100.00;100163.16;5249649;28;20031;-87
2021/12/02 06:58:40;;;;;;;4.75;4.35;;;;;;;1.32;100.00;100168.09;5249438;28;20101;-87
2021/12/02 07:01:10;;;;;;;4.93;4.63;;;;;;;1.17;100.00;100164.88;5248645;28;20023;-88
2021/12/02 07:03:41;;;;;;;4.65;4.10;;;;;;;1.35;100.00;100203.06;5248141;28;20020;-88
2021/12/02 07:06:11;;;;;;;7.00;4.43;;;;;;;1.37;100.00;100194.06;5249225;28;20028;-88
2021/12/02 07:08:41;;;;;;;9.02;5.85;;;;;;;1.34;100.00;100182.81;5249213;28;20046;-88
2021/12/02 07:11:12;;;;;;;8.20;5.68;;;;;;;1.40;100.00;100191.81;5249087;28;20028;-87
2021/12/02 07:13:42;;;;;;;6.50;5.38;;;;;;;1.55;100.00;100204.81;5251731;28;20024;-87
2021/12/02 07:16:12;;;;;;;5.95;5.30;;;;;;;1.48;100.00;100183.53;5250936;28;20032;-87
2021/12/02 07:18:47;;;;;;;17.42;5.80;;;;;;;1.37;100.00;100162.97;5250170;28;20024;-86
2021/12/02 07:21:18;;;;;;;6.32;5.70;;;;;;;1.65;100.00;100210.50;5249843;28;20034;-87
2021/12/02 07:23:48;;;;;;;6.97;5.43;;;;;;;1.80;100.00;100216.31;5250201;28;20111;-87
2021/12/02 07:26:19;;;;;;;5.13;4.82;;;;;;;1.62;100.00;100176.31;5250840;28;20048;-87
2021/12/02 07:28:49;;;;;;;6.88;5.05;;;;;;;1.64;100.00;100182.25;5249210;28;20090;-87
2021/12/02 07:31:22;;;;;;;6.78;5.78;;;;;;;1.95;100.00;100246.13;5249319;28;20035;-87
2021/12/02 07:33:56;;;;;;;6.40;4.78;;;;;;;1.73;100.00;100202.25;5250461;28;20032;-86
2021/12/02 07:36:28;;;;;;;4.82;4.57;;;;;;;1.79;100.00;100209.38;5249449;28;20017;-86
2021/12/02 07:39:05;;;;;;;6.45;5.28;;;;;;;2.16;100.00;100255.63;5250262;28;20040;-86
2021/12/02 07:41:39;;;;;;;10.68;3.72;;;;;;;2.14;100.00;100252.34;5249341;28;20465;-87
2021/12/02 07:44:11;;;;;;;6.80;4.22;;;;;;;2.26;100.00;100255.97;5249315;28;20393;-87
2021/12/02 07:46:41;;;;;;;5.20;4.40;;;;;;;2.32;100.00;100260.41;5248760;28;20128;-87
2021/12/02 07:49:13;;;;;;;8.73;4.38;;;;;;;2.36;100.00;100268.78;5249622;28;20107;-87
2021/12/02 07:51:44;;;;;;;5.50;5.03;;;;;;;2.17;100.00;100251.09;5254123;28;20040;-88
2021/12/02 07:54:17;;;;;;;6.32;4.47;;;;;;;1.96;100.00;100223.81;5258176;28;20036;-88
2021/12/02 07:56:47;;;;;;;6.22;5.70;;;;;;;1.86;100.00;100241.28;5263841;28;20016;-88
2021/12/02 07:59:18;;;;;;;8.95;5.93;;;;;;;1.60;100.00;100226.28;5264387;28;20048;-87
2021/12/02 08:01:49;;;;;;;17.10;6.22;;;;;;;1.54;100.00;100240.44;5264616;28;20024;-88
2021/12/02 08:04:19;;;;;;;7.88;7.38;;;;;;;1.56;100.00;100254.34;5264961;28;20032;-88
2021/12/02 08:06:50;;;;;;;8.55;6.35;;;;;;;1.51;100.00;100262.94;5264824;28;20178;-88
2021/12/02 08:09:21;;;;;;;9.45;7.68;;;;;;;1.07;100.00;100223.84;5267558;28;20046;-88
2021/12/02 08:11:53;;;;;;;8.75;8.02;;;;;;;1.18;100.00;100244.44;5266769;28;20100;-88
2021/12/02 08:14:24;;;;;;;6.45;5.82;;;;;;;1.65;100.00;100339.06;5264758;28;20444;-87
2021/12/02 08:16:54;;;;;;;11.52;5.68;;;;;;;1.65;100.00;100331.06;5248472;28;20033;-88
2021/12/02 08:19:25;;;;;;;4.82;4.40;;;;;;;1.27;100.00;100277.78;5264986;28;20044;-87
2021/12/02 08:21:55;;;;;;;13.35;4.78;;;;;;;1.14;100.00;100304.41;5270540;28;20016;-88
2021/12/02 08:24:26;;;;;;;5.65;5.35;;;;;;;0.63;100.00;100270.53;5255473;28;20024;-87
2021/12/02 08:26:56;;;;;;;4.65;4.45;;;;;;;0.85;100.00;100337.59;5250028;28;20025;-87
2021/12/02 08:29:26;;;;;;;4.38;4.10;;;;;;;0.56;100.00;100295.50;5249650;28;20080;-87
2021/12/02 08:31:57;;;;;;;4.15;4.05;;;;;;;0.73;100.00;100338.41;5249123;28;20071;-87
2021/12/02 08:34:27;;;;;;;5.43;4.32;;;;;;;0.66;100.00;100349.84;5250546;28;20028;-88
2021/12/02 08:36:58;;;;;;;8.32;4.72;;;;;;;0.41;100.00;100295.66;5249988;28;20081;-87
2021/12/02 08:39:29;;;;;;;5.43;4.82;;;;;;;0.54;100.00;100298.34;5247363;28;20028;-88
2021/12/02 08:42:02;;;;;;;5.22;4.93;;;;;;;0.76;100.00;100322.03;5248412;28;20048;-87
2021/12/02 08:44:34;;;;;;;4.68;4.38;;;;;;;0.55;100.00;100284.03;5247098;28;20032;-87
2021/12/02 08:47:07;;;;;;;7.03;4.95;;;;;;;0.68;100.00;100297.31;5246210;28;20444;-87
2021/12/02 08:49:37;;;;;;;6.05;4.80;;;;;;;1.10;100.00;100356.38;5247125;28;20022;-88
2021/12/02 08:52:07;;;;;;;15.40;7.50;;;;;;;0.73;100.00;100290.56;5247370;28;20035;-88
2021/12/02 08:54:38;;;;;;;13.93;5.53;;;;;;;1.10;100.00;100337.75;5246809;28;20115;-88
2021/12/02 08:57:08;;;;;;;9.27;5.05;;;;;;;0.84;100.00;100293.44;5247443;28;20023;-88
2021/12/02 08:59:40;;;;;;;13.15;5.35;;;;;;;1.38;100.00;100377.41;5245950;28;20027;-88
2021/12/02 09:02:11;;;;;;;5.10;4.80;;;;;;;1.43;100.00;100355.50;5246398;28;20470;-88
2021/12/02 09:04:42;;;;;;;5.65;5.38;;;;;;;1.26;100.00;100323.19;5247170;28;20062;-88
2021/12/02 09:07:13;;;;;;;10.45;5.47;;;;;;;1.50;100.00;100366.94;5247779;28;20498;-88
2021/12/02 09:09:43;;;;;;;8.25;7.32;;;;;;;1.17;100.00;100300.50;5251600;28;20401;-89
2021/12/02 09:12:14;;;;;;;8.85;5.65;;;;;;;1.25;100.00;100330.34;5253652;28;20036;-89
2021/12/02 09:14:45;;;;;;;6.68;6.28;;;;;;;0.90;100.00;100276.63;5255839;28;20021;-88
2021/12/02 09:17:15;;;;;;;5.85;5.47;;;;;;;1.10;100.00;100284.59;5257334;28;20490;-88
2021/12/02 09:19:45;;;;;;;5.55;5.25;;;;;;;1.45;100.00;100335.63;5255148;28;20030;-88
2021/12/02 09:22:16;;;;;;;7.05;6.65;;;;;;;1.69;100.00;100396.16;5252238;28;20020;-89
2021/12/02 09:24:47;;;;;;;6.90;6.55;;;;;;;0.95;100.00;100300.75;5252102;28;20051;-88
2021/12/02 09:27:17;;;;;;;8.40;6.93;;;;;;;0.94;100.00;100311.59;5248129;28;20032;-88
2021/12/02 09:29:47;;;;;;;6.65;6.25;;;;;;;1.16;100.00;100333.44;5246453;28;20489;-88
2021/12/02 09:32:18;;;;;;;8.00;7.60;;;;;;;1.41;100.00;100360.22;5248330;28;20063;-89
2021/12/02 09:34:49;;;;;;;7.32;6.80;;;;;;;1.46;100.00;100371.03;5245794;28;20050;-88
2021/12/02 09:37:19;;;;;;;6.57;6.18;;;;;;;1.65;100.00;100381.63;5247467;28;20074;-89
2021/12/02 09:39:49;;;;;;;6.20;5.93;;;;;;;1.36;100.00;100326.25;5245678;28;20078;-89
2021/12/02 09:42:20;;;;;;;7.80;6.10;;;;;;;1.53;100.00;100362.00;5245422;28;20025;-89
2021/12/02 09:44:55;;;;;;;8.43;7.75;;;;;;;1.49;100.00;100375.94;5245008;28;20482;-89
2021/12/02 09:47:31;;;;;;;6.50;6.20;;;;;;;1.16;100.00;100365.34;5245090;28;20037;-89
2021/12/02 09:50:12;;;;;;;6.82;6.28;;;;;;;1.25;100.00;100388.88;5246950;28;20482;-88
2021/12/02 09:52:43;;;;;;;6.70;6.32;;;;;;;1.18;100.00;100384.56;5245664;28;20458;-89
2021/12/02 09:55:34;;;;;;;8.98;8.07;;;;;;;1.26;100.00;100366.56;5245394;28;20131;-88
2021/12/02 09:58:08;;;;;;;11.75;6.18;;;;;;;1.21;100.00;100328.31;5246739;28;20021;-89
2021/12/02 10:00:56;;;;;;;7.50;6.70;;;;;;;2.01;100.00;100393.59;5247609;28;20084;-88
2021/12/02 10:03:41;;;;;;;7.55;6.90;;;;;;;2.24;100.00;100364.59;5248033;28;20044;-88
2021/12/02 10:06:22;;;;;;;7.03;6.10;;;;;;;2.35;100.00;100344.41;5248648;28;20036;-88
2021/12/02 10:09:05;;;;;;;7.47;6.63;;;;;;;2.70;100.00;100384.78;5248452;28;20571;-88
2021/12/02 10:11:48;;;;;;;8.77;7.28;;;;;;;2.55;100.00;100355.78;5250984;28;20034;-88
2021/12/02 10:14:22;;;;;;;6.97;6.47;;;;;;;2.86;100.00;100386.13;5253126;28;20052;-88
2021/12/02 10:17:17;;;;;;;7.85;7.22;;;;;;;3.12;100.00;100391.22;5258170;28;20176;-89
2021/12/02 10:23:14;;;;;;;7.63;7.03;;;;;;;3.14;100.00;100381.16;5261879;28;20039;-88
2021/12/02 10:25:48;;;;;;;5.88;5.40;;;;;;;3.05;100.00;100369.94;5260865;28;20058;-89
2021/12/02 10:28:19;;;;;;;5.93;5.43;;;;;;;3.20;100.00;100398.94;5251734;28;20021;-89
2021/12/02 10:30:56;;;;;;;6.50;6.10;;;;;;;3.16;100.00;100392.44;5249706;28;20024;-89
2021/12/02 10:33:46;;;;;;;6.05;5.75;;;;;;;3.04;100.00;100376.31;5267119;28;20140;-88
2021/12/02 10:36:25;;;;;;;5.05;4.78;;;;;;;3.13;100.00;100397.38;5251709;28;20513;-88
2021/12/02 10:39:07;;;;;;;6.25;5.50;;;;;;;3.01;100.00;100392.75;5250603;28;20024;-87
2021/12/02 10:41:42;;;;;;;9.15;6.68;;;;;;;2.88;100.00;100376.06;5250579;28;20115;-88
2021/12/02 10:44:13;;;;;;;5.90;5.60;;;;;;;2.87;100.00;100393.09;5251182;28;20039;-89
2021/12/02 10:47:07;;;;;;;8.35;6.38;;;;;;;2.62;100.00;100374.38;5292642;22;20040;-83
2021/12/02 10:49:42;;;;;;;6.10;5.60;;;;;;;2.68;100.00;100397.50;5278491;28;20031;-84
2021/12/02 10:52:25;;;;;;;5.63;5.22;;;;;;;2.59;100.00;100401.50;5277696;28;20156;-85
2021/12/02 10:55:04;;;;;;;5.60;5.20;;;;;;;2.46;100.00;100406.88;5280080;28;20012;-80
2021/12/02 10:57:37;;;;;;;6.50;6.03;;;;;;;2.46;100.00;100414.88;5278838;28;20028;-81
2021/12/02 11:00:13;;;;;;;5.97;5.38;;;;;;;2.54;100.00;100406.63;5280680;28;20020;-83
2021/12/02 11:02:48;;;;;;;5.47;5.18;;;;;;;2.52;100.00;100396.19;5281165;28;20110;-83
2021/12/02 11:05:24;;;;;;;5.47;4.95;;;;;;;2.26;100.00;100335.88;5279681;28;20016;-82
2021/12/02 11:08:04;;;;;;;4.53;4.18;;;;;;;2.78;100.00;100421.84;5278973;28;20114;-84
2021/12/02 11:10:34;;;;;;;;;;;;;;;2.85;100.00;100427.16;5281106;28;20265;-84
2021/12/02 11:13:06;;;;;;;4.55;4.25;;;;;;;2.84;100.00;100412.19;5280789;28;19908;-81
2021/12/02 11:15:39;;;;;;;3.88;3.67;;;;;;;2.80;100.00;100403.78;5281473;28;20073;-84
2021/12/02 11:18:12;;;;;;;5.30;4.13;;;;;;;3.07;100.00;100415.06;5280035;28;20077;-81
2021/12/02 11:21:19;;;;;;;4.63;4.43;;;;;;;3.14;100.00;100415.84;5277984;28;20028;-82
2021/12/02 11:23:50;;;;;;;4.53;4.32;;;;;;;2.40;100.00;100303.81;5279006;28;20024;-83
2021/12/02 11:26:20;;;;;;;4.22;4.00;;;;;;;3.15;100.00;100420.16;5278378;28;20028;-82
2021/12/02 11:28:51;;;;;;;4.40;4.13;;;;;;;3.04;100.00;100380.81;5277096;28;20624;-83
2021/12/02 11:31:22;;;;;;;3.85;3.63;;;;;;;2.93;100.00;100384.19;5278167;28;20505;-82
2021/12/02 11:33:53;;;;;;;7.10;4.38;;;;;;;3.18;100.00;100414.34;5267378;28;20075;-83
2021/12/02 11:36:30;;;;;;;4.32;4.05;;;;;;;3.07;100.00;100375.06;5265641;28;20051;-83
2021/12/02 11:39:02;;;;;;;4.07;3.97;;;;;;;3.09;100.00;100356.97;5278180;28;20027;-82
2021/12/02 11:41:33;;;;;;;4.15;3.92;;;;;;;3.52;100.00;100418.34;5277230;28;20092;-83
2021/12/02 11:44:04;;;;;;;4.50;4.30;;;;;;;3.40;100.00;100430.81;5279954;28;20107;-82
2021/12/02 11:46:35;;;;;;;4.45;4.25;;;;;;;3.12;100.00;100412.56;5289533;28;20027;-80
2021/12/02 11:49:06;;;;;;;3.80;3.38;;;;;;;2.94;100.00;100407.97;5290403;28;20024;-81
2021/12/02 11:51:38;;;;;;;3.53;3.33;;;;;;;2.89;100.00;100425.66;5290356;28;20685;-80
2021/12/02 11:54:09;;;;;;;3.90;3.72;;;;;;;2.93;100.00;100417.00;5289823;28;20024;-83
2021/12/02 11:56:40;;;;;;;4.70;4.30;;;;;;;3.11;100.00;100413.59;5285857;28;20020;-84
2021/12/02 11:59:10;;;;;;;3.63;3.53;;;;;;;3.10;100.00;100379.16;5284815;28;20039;-83
2021/12/02 12:01:43;;;;;;;4.15;3.95;;;;;;;3.70;100.00;100445.09;5282767;28;20355;-83
2021/12/02 12:04:14;;;;;;;3.75;3.55;;;;;;;3.83;100.00;100416.59;5265075;28;20016;-81
2021/12/02 12:06:54;;;;;;;3.20;3.08;;;;;;;4.18;100.00;100452.34;5261954;28;20046;-83
2021/12/02 12:09:25;;;;;;;3.95;3.75;;;;;;;4.51;100.00;100440.44;5263710;28;20024;-81
2021/12/02 12:11:57;;;;;;;3.55;3.35;;;;;;;4.65;100.00;100426.63;5261970;28;20025;-82
2021/12/02 12:14:40;;;;;;;4.82;3.10;;;;;;;4.21;100.00;100342.34;5262051;28;20021;-83
2021/12/02 12:17:13;;;;;;;2.55;2.45;;;;;;;4.90;100.00;100445.22;5263210;28;20025;-83